Time;durP1;ratioP1;P1;durP2;ratioP2;P2;SDS_P1;SDS_P2;PMS_P1;PMS_P2;Temp;Humidity;BMP_temperature;BMP_pressure;BME280_temperature;BME280_humidity;BME280_pressure;Samples;Min_cycle;Max_cycle;Signal;HPM_P1;HPM_P2
2022/11/23 00:01:59;;;;;;;9.98;4.75;;;;;;;3.33;100.00;99165.63;6530485;22;20057;-78
2022/11/23 00:04:29;;;;;;;13.38;4.78;;;;;;;3.33;100.00;99171.59;6518090;22;20026;-78
2022/11/23 00:07:00;;;;;;;11.40;4.95;;;;;;;3.35;100.00;99174.97;6530379;22;19995;-78
2022/11/23 00:09:30;;;;;;;10.93;4.72;;;;;;;3.52;100.00;99177.09;6518241;22;20355;-79
2022/11/23 00:12:00;;;;;;;15.45;4.85;;;;;;;3.52;100.00;99171.91;6530394;22;19999;-78
2022/11/23 00:14:31;;;;;;;12.45;4.75;;;;;;;3.58;100.00;99178.56;6529693;22;20009;-78
2022/11/23 00:17:01;;;;;;;12.05;4.55;;;;;;;3.53;100.00;99178.78;6530305;22;20005;-78
2022/11/23 00:19:32;;;;;;;12.77;4.88;;;;;;;3.47;100.00;99173.78;6529811;22;19999;-79
2022/11/23 00:22:02;;;;;;;10.20;4.30;;;;;;;3.43;100.00;99167.00;6530946;22;20035;-79
2022/11/23 00:24:33;;;;;;;13.73;3.97;;;;;;;3.30;100.00;99156.22;6528414;22;20367;-78
2022/11/23 00:27:03;;;;;;;13.30;3.92;;;;;;;3.20;100.00;99152.19;6529448;22;20026;-78
2022/11/23 00:29:34;;;;;;;11.45;3.75;;;;;;;3.25;100.00;99157.22;6530238;22;19999;-78
2022/11/23 00:32:04;;;;;;;12.30;4.07;;;;;;;3.18;100.00;99161.72;6530727;22;20010;-78
2022/11/23 00:34:34;;;;;;;13.13;4.32;;;;;;;2.96;100.00;99164.94;6491470;22;20057;-78
2022/11/23 00:37:05;;;;;;;11.30;4.18;;;;;;;3.00;100.00;99157.09;6529417;22;19995;-78
2022/11/23 00:39:35;;;;;;;10.88;3.90;;;;;;;3.07;100.00;99153.47;6529127;22;20010;-78
2022/11/23 00:42:05;;;;;;;12.43;3.70;;;;;;;3.09;100.00;99151.69;6529086;22;20543;-78
2022/11/23 00:44:35;;;;;;;13.55;3.60;;;;;;;3.13;100.00;99161.00;6491052;22;20003;-78
2022/11/23 00:47:06;;;;;;;9.27;3.90;;;;;;;3.16;100.00;99158.34;6488730;22;20035;-77
2022/11/23 00:49:36;;;;;;;13.68;3.70;;;;;;;3.18;100.00;99150.56;6529105;22;20086;-77
2022/11/23 00:52:07;;;;;;;13.13;4.10;;;;;;;3.23;100.00;99151.28;6529473;22;20377;-79
2022/11/23 00:54:37;;;;;;;13.45;4.32;;;;;;;3.14;100.00;99160.13;6529873;22;20086;-77
2022/11/23 00:57:07;;;;;;;12.32;3.85;;;;;;;3.08;100.00;99157.72;6528841;22;20511;-78
2022/11/23 00:59:38;;;;;;;13.38;3.65;;;;;;;3.11;100.00;99164.50;6528938;22;20022;-78
2022/11/23 01:02:08;;;;;;;10.93;3.97;;;;;;;3.01;100.00;99163.09;6530461;22;20006;-78
2022/11/23 01:04:38;;;;;;;11.13;3.83;;;;;;;3.04;100.00;99168.16;6529340;22;19999;-77
2022/11/23 01:07:09;;;;;;;13.90;3.97;;;;;;;2.95;100.00;99160.69;6528964;22;20453;-78
2022/11/23 01:09:39;;;;;;;11.73;3.30;;;;;;;2.98;100.00;99165.75;6516625;22;20026;-78
2022/11/23 01:12:09;;;;;;;11.25;3.53;;;;;;;2.92;100.00;99164.22;6529756;22;20006;-78
2022/11/23 01:14:40;;;;;;;12.75;3.60;;;;;;;2.90;100.00;99167.69;6530169;22;20078;-79
2022/11/23 01:17:10;;;;;;;10.43;3.70;;;;;;;2.84;100.00;99167.88;6529821;22;20067;-77
2022/11/23 01:19:40;;;;;;;11.07;3.75;;;;;;;2.80;100.00;99176.56;6528735;22;20003;-78
2022/11/23 01:22:11;;;;;;;12.95;4.40;;;;;;;2.77;100.00;99171.50;6529409;22;20638;-79
2022/11/23 01:24:41;;;;;;;9.85;3.55;;;;;;;2.77;100.00;99174.94;6529367;22;20053;-77
2022/11/23 01:27:11;;;;;;;12.05;4.20;;;;;;;2.63;100.00;99179.59;6530158;22;20012;-78
2022/11/23 01:29:41;;;;;;;16.40;4.30;;;;;;;2.68;100.00;99175.16;6530135;22;20002;-77
2022/11/23 01:32:12;;;;;;;16.92;3.67;;;;;;;2.64;100.00;99176.13;6528297;22;20341;-78
2022/11/23 01:34:42;;;;;;;15.23;4.00;;;;;;;2.62;100.00;99169.31;6530533;22;20064;-78
2022/11/23 01:37:12;;;;;;;13.73;3.70;;;;;;;2.60;100.00;99184.84;6519396;22;20466;-75
2022/11/23 01:39:42;;;;;;;13.77;4.43;;;;;;;2.60;100.00;99178.84;6530103;22;19999;-79
2022/11/23 01:42:13;;;;;;;10.20;3.65;;;;;;;2.54;100.00;99189.31;6530464;22;20552;-78
2022/11/23 01:44:43;;;;;;;13.40;4.20;;;;;;;2.54;100.00;99190.16;6530086;22;20006;-78
2022/11/23 01:47:13;;;;;;;16.10;4.13;;;;;;;2.48;100.00;99192.06;6528821;22;19995;-78
2022/11/23 01:49:49;;;;;;;9.40;3.97;;;;;;;2.49;100.00;99192.00;6516576;22;20388;-78
2022/11/23 01:52:23;;;;;;;10.88;3.72;;;;;;;2.47;100.00;99198.94;6490959;22;20353;-78
2022/11/23 01:54:57;;;;;;;17.38;4.15;;;;;;;2.40;100.00;99204.28;6490559;22;20052;-78
2022/11/23 01:57:41;;;;;;;11.20;4.10;;;;;;;2.50;100.00;99198.03;6529225;22;20518;-78
2022/11/23 02:00:12;;;;;;;12.75;3.85;;;;;;;2.48;100.00;99194.63;6522482;22;20077;-79
2022/11/23 02:02:52;;;;;;;10.30;4.10;;;;;;;2.51;100.00;99187.66;6528676;22;20007;-78
2022/11/23 02:05:29;;;;;;;8.38;3.92;;;;;;;2.62;100.00;99195.09;6529003;22;20003;-78
2022/11/23 02:08:01;;;;;;;14.80;3.90;;;;;;;2.54;100.00;99192.72;6527511;22;20038;-78
2022/11/23 02:10:33;;;;;;;12.15;4.05;;;;;;;2.53;100.00;99190.19;6490288;22;20008;-78
2022/11/23 02:13:06;;;;;;;10.98;3.65;;;;;;;2.49;100.00;99188.59;6528782;22;20025;-78
2022/11/23 02:15:37;;;;;;;12.40;3.90;;;;;;;2.46;100.00;99188.66;6527888;22;20006;-78
2022/11/23 02:18:15;;;;;;;11.02;4.10;;;;;;;2.49;100.00;99189.44;6528471;22;19999;-78
2022/11/23 02:20:46;;;;;;;14.98;3.60;;;;;;;2.50;100.00;99187.72;6529468;22;20072;-79
2022/11/23 02:23:32;;;;;;;10.32;3.75;;;;;;;2.47;100.00;99190.38;6529767;22;20030;-78
2022/11/23 02:26:09;;;;;;;9.07;3.80;;;;;;;2.58;100.00;99178.03;6528699;22;20430;-78
2022/11/23 02:28:53;;;;;;;10.00;3.58;;;;;;;2.72;100.00;99181.09;6528641;22;20392;-78
2022/11/23 02:31:23;;;;;;;12.25;3.95;;;;;;;2.81;100.00;99183.41;6529031;22;20003;-78
2022/11/23 02:33:54;;;;;;;12.43;3.58;;;;;;;2.84;100.00;99178.19;6530266;22;20143;-78
2022/11/23 02:36:24;;;;;;;10.43;4.07;;;;;;;2.72;100.00;99188.84;6531454;22;19999;-79
2022/11/23 02:38:57;;;;;;;14.10;4.35;;;;;;;2.87;100.00;99194.41;6530859;22;20374;-79
2022/11/23 02:41:37;;;;;;;8.50;3.75;;;;;;;2.87;100.00;99191.84;6521364;22;20476;-78
2022/11/23 02:44:22;;;;;;;11.27;3.78;;;;;;;2.80;100.00;99198.06;6532449;22;20010;-78
2022/11/23 02:46:53;;;;;;;10.02;3.50;;;;;;;2.65;100.00;99197.63;6492902;22;20090;-78
2022/11/23 02:49:23;;;;;;;14.73;3.65;;;;;;;2.68;100.00;99194.97;6531130;22;20026;-78
2022/11/23 02:51:54;;;;;;;10.70;3.47;;;;;;;2.65;100.00;99189.91;6531420;22;20026;-78
2022/11/23 02:54:24;;;;;;;11.68;3.47;;;;;;;2.77;100.00;99192.13;6532590;22;20010;-78
2022/11/23 02:56:54;;;;;;;9.18;3.17;;;;;;;2.76;100.00;99190.44;6521929;22;20026;-79
2022/11/23 02:59:25;;;;;;;8.13;3.33;;;;;;;2.73;100.00;99190.53;6531438;22;20330;-76
2022/11/23 03:01:56;;;;;;;9.93;3.40;;;;;;;2.72;100.00;99196.56;6531136;22;20064;-78
2022/11/23 03:04:26;;;;;;;9.05;3.40;;;;;;;2.77;100.00;99195.56;6530983;22;20026;-79
2022/11/23 03:06:57;;;;;;;9.05;3.33;;;;;;;2.79;100.00;99205.81;6530676;22;20003;-78
2022/11/23 03:09:28;;;;;;;9.90;3.30;;;;;;;2.79;100.00;99208.41;6531301;22;20053;-79
2022/11/23 03:11:58;;;;;;;12.10;3.70;;;;;;;2.83;100.00;99208.28;6531617;22;20555;-77
2022/11/23 03:14:28;;;;;;;11.95;3.40;;;;;;;2.86;100.00;99199.63;6530691;22;19999;-78
2022/11/23 03:16:59;;;;;;;10.25;3.53;;;;;;;2.87;100.00;99206.47;6531376;22;20599;-78
2022/11/23 03:19:30;;;;;;;11.68;3.50;;;;;;;3.07;100.00;99199.03;6531169;22;20074;-78
2022/11/23 03:22:00;;;;;;;9.90;3.47;;;;;;;3.09;100.00;99197.25;6531757;22;20315;-79
2022/11/23 03:24:30;;;;;;;11.70;3.53;;;;;;;3.18;100.00;99186.69;6530706;22;20325;-79
2022/11/23 03:27:01;;;;;;;8.13;3.13;;;;;;;3.25;100.00;99189.06;6530333;22;20120;-78
2022/11/23 03:29:31;;;;;;;8.32;3.20;;;;;;;3.26;100.00;99201.06;6529756;22;20603;-78
2022/11/23 03:32:02;;;;;;;11.02;3.22;;;;;;;3.34;100.00;99190.53;6531775;22;20553;-78
2022/11/23 03:34:32;;;;;;;11.13;3.70;;;;;;;3.39;100.00;99196.41;6531000;22;20015;-79
2022/11/23 03:37:02;;;;;;;7.55;3.10;;;;;;;3.30;100.00;99192.34;6530826;22;20071;-78
2022/11/23 03:39:33;;;;;;;13.32;3.38;;;;;;;3.42;100.00;99198.88;6531192;22;19999;-77
2022/11/23 03:42:03;;;;;;;10.48;3.00;;;;;;;3.48;100.00;99194.41;6531955;22;20259;-79
2022/11/23 03:44:34;;;;;;;7.68;3.28;;;;;;;3.60;100.00;99192.28;6531807;22;20022;-79
2022/11/23 03:47:04;;;;;;;9.35;3.03;;;;;;;3.68;100.00;99184.31;6531059;22;20056;-78
2022/11/23 03:49:34;;;;;;;11.05;3.13;;;;;;;3.81;100.00;99196.78;6530410;22;20003;-78
2022/11/23 03:52:04;;;;;;;7.47;3.05;;;;;;;3.84;100.00;99191.56;6531501;22;19999;-78
2022/11/23 03:54:35;;;;;;;9.77;3.00;;;;;;;3.88;100.00;99198.31;6531259;22;19999;-78
2022/11/23 03:57:05;;;;;;;12.23;3.25;;;;;;;3.98;100.00;99194.53;6531296;22;20009;-78
2022/11/23 03:59:35;;;;;;;8.57;3.25;;;;;;;4.06;100.00;99194.28;6529045;22;20003;-78
2022/11/23 04:02:06;;;;;;;10.20;3.10;;;;;;;4.09;100.00;99192.47;6530841;22;20783;-78
2022/11/23 04:04:37;;;;;;;12.68;3.63;;;;;;;4.13;100.00;99188.88;6529836;22;20564;-79
2022/11/23 04:07:07;;;;;;;12.70;3.30;;;;;;;4.21;100.00;99194.66;6530566;22;20003;-80
2022/11/23 04:09:37;;;;;;;7.78;3.10;;;;;;;4.27;100.00;99186.72;6530770;22;19999;-79
2022/11/23 04:12:09;;;;;;;11.07;2.95;;;;;;;4.36;100.00;99191.59;6531838;22;20003;-79
2022/11/23 04:14:39;;;;;;;7.88;2.75;;;;;;;4.42;100.00;99185.34;6531381;22;20082;-79
2022/11/23 04:17:09;;;;;;;10.13;3.30;;;;;;;4.46;100.00;99190.38;6531672;22;19996;-76
2022/11/23 04:19:40;;;;;;;9.52;3.13;;;;;;;4.46;100.00;99192.97;6531380;22;20009;-79
2022/11/23 04:22:10;;;;;;;8.05;3.00;;;;;;;4.49;100.00;99195.44;6530303;22;20007;-78
2022/11/23 04:24:40;;;;;;;9.52;3.33;;;;;;;4.51;100.00;99196.25;6491962;22;20350;-79
2022/11/23 04:27:10;;;;;;;7.82;3.10;;;;;;;4.47;100.00;99184.31;6528782;22;19999;-78
2022/11/23 04:29:41;;;;;;;12.10;3.20;;;;;;;4.50;100.00;99204.88;6530092;22;20030;-78
2022/11/23 04:32:11;;;;;;;9.63;3.15;;;;;;;4.53;100.00;99189.28;6530892;22;20102;-78
2022/11/23 04:34:41;;;;;;;8.43;3.08;;;;;;;4.67;100.00;99196.56;6531250;22;20013;-78
2022/11/23 04:37:11;;;;;;;9.38;3.25;;;;;;;4.67;100.00;99186.22;6530620;22;20501;-78
2022/11/23 04:39:42;;;;;;;12.43;2.90;;;;;;;4.71;100.00;99191.25;6530948;22;20007;-78
2022/11/23 04:42:12;;;;;;;9.68;2.88;;;;;;;4.69;100.00;99200.81;6531082;22;20426;-78
2022/11/23 04:44:43;;;;;;;10.88;3.17;;;;;;;4.70;100.00;99197.31;6529441;22;20003;-78
2022/11/23 04:47:13;;;;;;;8.90;3.15;;;;;;;4.81;100.00;99202.97;6530955;22;20041;-78
2022/11/23 04:49:43;;;;;;;7.75;2.78;;;;;;;4.85;100.00;99204.56;6529666;22;20003;-78
2022/11/23 04:52:14;;;;;;;7.65;2.65;;;;;;;4.97;100.00;99196.34;6529207;22;20022;-79
2022/11/23 04:54:44;;;;;;;9.68;2.83;;;;;;;5.05;100.00;99202.13;6529833;22;20007;-78
2022/11/23 04:57:14;;;;;;;9.40;2.90;;;;;;;5.01;100.00;99207.44;6517093;22;20053;-78
2022/11/23 04:59:45;;;;;;;9.80;2.75;;;;;;;5.09;100.00;99195.94;6530167;22;20010;-78
2022/11/23 05:02:15;;;;;;;8.73;2.70;;;;;;;5.12;100.00;99201.00;6530258;22;20023;-78
2022/11/23 05:04:46;;;;;;;12.43;2.90;;;;;;;5.11;100.00;99206.25;6491023;22;20406;-77
2022/11/23 05:07:16;;;;;;;10.27;2.75;;;;;;;5.11;100.00;99204.47;6529390;22;20005;-77
2022/11/23 05:09:46;;;;;;;6.78;2.58;;;;;;;5.11;100.00;99203.66;6530101;22;19999;-79
2022/11/23 05:12:17;;;;;;;9.73;2.55;;;;;;;5.15;100.00;99206.06;6530153;22;20011;-79
2022/11/23 05:14:47;;;;;;;9.65;2.80;;;;;;;5.08;100.00;99194.25;6530106;22;20003;-79
2022/11/23 05:17:17;;;;;;;6.20;2.65;;;;;;;5.05;100.00;99199.53;6491074;22;20447;-79
2022/11/23 05:19:48;;;;;;;11.65;3.33;;;;;;;5.04;100.00;99200.44;6490679;22;20013;-76
2022/11/23 05:22:19;;;;;;;7.50;2.83;;;;;;;5.02;100.00;99198.78;6529810;22;19999;-78
2022/11/23 05:24:49;;;;;;;9.75;3.03;;;;;;;5.01;100.00;99197.94;6528102;22;20515;-78
2022/11/23 05:27:19;;;;;;;9.65;3.13;;;;;;;4.95;100.00;99195.56;6519103;22;19999;-79
2022/11/23 05:29:50;;;;;;;9.05;3.28;;;;;;;4.94;100.00;99204.22;6529420;22;20003;-79
2022/11/23 05:32:20;;;;;;;12.30;3.17;;;;;;;4.88;100.00;99203.59;6529538;22;20438;-78
2022/11/23 05:34:50;;;;;;;13.25;3.45;;;;;;;4.88;100.00;99201.88;6490604;22;20003;-78
2022/11/23 05:37:21;;;;;;;10.07;3.00;;;;;;;4.82;100.00;99207.22;6529137;22;20307;-77
2022/11/23 05:39:51;;;;;;;12.30;3.75;;;;;;;4.80;100.00;99205.63;6529116;22;20033;-78
2022/11/23 05:42:21;;;;;;;10.40;3.20;;;;;;;4.88;100.00;99204.47;6529638;22;20010;-79
2022/11/23 05:44:52;;;;;;;9.82;3.25;;;;;;;4.92;100.00;99203.44;6490520;22;20342;-79
2022/11/23 05:47:22;;;;;;;8.88;3.13;;;;;;;4.94;100.00;99214.59;6528608;22;20008;-78
2022/11/23 05:49:53;;;;;;;11.45;3.42;;;;;;;4.87;100.00;99215.72;6529389;22;20059;-78
2022/11/23 05:52:24;;;;;;;10.70;3.63;;;;;;;4.92;100.00;99211.19;6529246;22;19999;-78
2022/11/23 05:54:54;;;;;;;12.57;3.40;;;;;;;4.86;100.00;99203.66;6528250;22;19999;-78
2022/11/23 05:57:25;;;;;;;8.88;2.97;;;;;;;4.87;100.00;99202.75;6529381;22;20584;-78
2022/11/23 05:59:55;;;;;;;9.82;2.90;;;;;;;4.91;100.00;99206.94;6528717;22;20080;-78
2022/11/23 06:02:25;;;;;;;12.52;3.20;;;;;;;4.94;100.00;99204.22;6528661;22;20052;-77
2022/11/23 06:04:55;;;;;;;9.38;3.35;;;;;;;4.91;100.00;99203.47;6528305;22;20434;-78
2022/11/23 06:07:26;;;;;;;8.00;3.08;;;;;;;5.01;100.00;99216.03;6528961;22;19999;-78
2022/11/23 06:09:56;;;;;;;12.55;3.67;;;;;;;4.95;100.00;99208.50;6529069;22;20078;-79
2022/11/23 06:12:28;;;;;;;11.52;3.47;;;;;;;4.94;100.00;99208.59;6529553;22;19999;-78
2022/11/23 06:14:58;;;;;;;7.80;3.35;;;;;;;4.96;100.00;99211.94;6490178;22;20004;-78
2022/11/23 06:17:28;;;;;;;12.63;3.60;;;;;;;5.00;100.00;99209.19;6529235;22;20040;-79
2022/11/23 06:19:58;;;;;;;10.23;3.33;;;;;;;5.00;100.00;99209.19;6490932;22;20069;-78
2022/11/23 06:22:29;;;;;;;10.50;3.30;;;;;;;5.03;100.00;99205.66;6528773;22;20010;-78
2022/11/23 06:24:59;;;;;;;7.75;3.25;;;;;;;5.02;100.00;99209.13;6528405;22;20363;-79
2022/11/23 06:27:29;;;;;;;9.35;3.38;;;;;;;4.95;100.00;99208.50;6527957;22;20060;-79
2022/11/23 06:30:00;;;;;;;11.45;3.70;;;;;;;4.98;100.00;99207.56;6527205;22;20395;-78
2022/11/23 06:32:30;;;;;;;8.52;3.45;;;;;;;4.98;100.00;99213.56;6523945;22;19999;-78
2022/11/23 06:35:01;;;;;;;8.52;3.42;;;;;;;4.92;100.00;99218.97;6487166;22;20242;-79
2022/11/23 06:37:31;;;;;;;10.82;3.55;;;;;;;5.01;100.00;99230.75;6525797;22;20074;-78
2022/11/23 06:40:02;;;;;;;10.82;3.47;;;;;;;4.86;100.00;99228.69;6524973;22;20073;-78
2022/11/23 06:42:32;;;;;;;10.48;3.45;;;;;;;4.80;100.00;99232.31;6525431;22;19995;-78
2022/11/23 06:45:03;;;;;;;11.38;3.17;;;;;;;4.83;100.00;99234.78;6526113;22;20007;-79
2022/11/23 06:47:33;;;;;;;14.50;3.47;;;;;;;4.69;100.00;99242.22;6526214;22;20305;-78
2022/11/23 06:50:04;;;;;;;10.15;3.30;;;;;;;4.64;100.00;99233.72;6527574;22;20025;-78
2022/11/23 06:52:35;;;;;;;7.97;3.08;;;;;;;4.63;100.00;99237.22;6527297;22;20011;-78
2022/11/23 06:55:05;;;;;;;10.00;3.40;;;;;;;4.62;100.00;99245.03;6488976;22;20037;-79
2022/11/23 06:57:36;;;;;;;10.00;3.40;;;;;;;4.59;100.00;99242.53;6527097;22;20010;-78
2022/11/23 07:00:07;;;;;;;9.10;3.55;;;;;;;4.74;100.00;99240.31;6517628;22;20003;-78
2022/11/23 07:02:37;;;;;;;11.13;3.90;;;;;;;4.81;100.00;99241.78;6527812;22;20038;-78
2022/11/23 07:05:08;;;;;;;8.82;3.55;;;;;;;4.83;100.00;99245.16;6518175;22;19999;-78
2022/11/23 07:07:38;;;;;;;8.82;3.60;;;;;;;4.95;100.00;99244.75;6490000;22;20041;-79
2022/11/23 07:10:08;;;;;;;10.57;3.30;;;;;;;4.93;100.00;99240.50;6528770;22;19999;-78
2022/11/23 07:12:39;;;;;;;11.75;3.35;;;;;;;4.96;100.00;99245.59;6526913;22;20002;-78
2022/11/23 07:15:10;;;;;;;11.93;3.40;;;;;;;5.03;100.00;99250.50;6527945;22;20254;-79
2022/11/23 07:17:43;;;;;;;12.07;3.40;;;;;;;5.05;100.00;99256.47;6528498;22;19999;-78
2022/11/23 07:20:13;;;;;;;8.38;3.20;;;;;;;5.09;100.00;99258.06;6490410;22;20007;-78
2022/11/23 07:22:43;;;;;;;8.60;3.33;;;;;;;5.13;100.00;99254.47;6530438;22;20007;-78
2022/11/23 07:25:17;;;;;;;13.10;3.40;;;;;;;5.16;100.00;99258.69;6529559;22;20007;-76
2022/11/23 07:27:54;;;;;;;9.30;2.95;;;;;;;5.20;100.00;99261.13;6530835;22;20430;-79
2022/11/23 07:30:25;;;;;;;10.43;3.28;;;;;;;5.23;100.00;99263.59;6530894;22;20369;-79
2022/11/23 07:33:00;;;;;;;9.57;3.28;;;;;;;5.21;100.00;99261.97;6520089;22;20004;-78
2022/11/23 07:35:31;;;;;;;10.73;3.33;;;;;;;5.35;100.00;99265.75;6530110;22;20076;-78
2022/11/23 07:38:08;;;;;;;9.82;3.08;;;;;;;5.35;100.00;99268.34;6530764;22;20292;-77
2022/11/23 07:40:38;;;;;;;8.30;3.08;;;;;;;5.44;100.00;99271.44;6530660;22;20003;-77
2022/11/23 07:43:09;;;;;;;10.63;3.15;;;;;;;5.52;100.00;99260.81;6531031;22;19999;-78
2022/11/23 07:45:39;;;;;;;11.02;2.83;;;;;;;5.53;100.00;99267.66;6491767;22;20458;-78
2022/11/23 07:48:10;;;;;;;12.32;3.15;;;;;;;5.58;100.00;99278.72;6529678;22;20438;-79
2022/11/23 07:50:40;;;;;;;14.93;3.13;;;;;;;5.68;100.00;99277.47;6529243;22;20003;-78
2022/11/23 07:53:10;;;;;;;7.53;3.30;;;;;;;5.76;100.00;99284.06;6529635;22;20003;-78
2022/11/23 07:55:40;;;;;;;8.15;2.85;;;;;;;5.77;100.00;99287.53;6490819;22;20472;-77
2022/11/23 07:58:11;;;;;;;9.98;2.95;;;;;;;5.85;100.00;99282.91;6529579;22;19995;-77
2022/11/23 08:00:41;;;;;;;9.38;3.10;;;;;;;5.84;100.00;99287.28;6529894;22;20009;-78
2022/11/23 08:03:13;;;;;;;8.98;2.90;;;;;;;5.84;100.00;99278.63;6529680;22;20053;-78
2022/11/23 08:05:43;;;;;;;12.48;3.47;;;;;;;5.87;100.00;99279.38;6529213;22;19999;-79
2022/11/23 08:08:14;;;;;;;12.05;3.33;;;;;;;5.94;100.00;99277.41;6529988;22;20061;-78
2022/11/23 08:10:44;;;;;;;12.73;3.22;;;;;;;5.93;100.00;99270.53;6529636;22;20003;-78
2022/11/23 08:13:15;;;;;;;9.13;2.95;;;;;;;5.97;100.00;99290.25;6530249;22;20086;-78
2022/11/23 08:15:45;;;;;;;10.23;2.85;;;;;;;6.04;100.00;99284.78;6491603;22;20041;-78
2022/11/23 08:18:15;;;;;;;11.45;3.38;;;;;;;6.04;100.00;99278.72;6491588;22;20122;-78
2022/11/23 08:20:45;;;;;;;9.57;2.83;;;;;;;6.11;100.00;99281.03;6529658;22;20480;-78
2022/11/23 08:23:16;;;;;;;8.00;2.60;;;;;;;6.20;100.00;99278.09;6530060;22;20030;-78
2022/11/23 08:25:46;;;;;;;6.05;2.40;;;;;;;6.23;100.00;99279.75;6528812;22;20064;-77
2022/11/23 08:28:17;;;;;;;8.32;2.55;;;;;;;6.42;100.00;99275.50;6530543;22;20306;-79
2022/11/23 08:30:48;;;;;;;8.88;2.30;;;;;;;6.49;100.00;99275.22;6529328;22;20082;-78
2022/11/23 08:33:18;;;;;;;10.63;3.05;;;;;;;6.51;100.00;99276.00;6491543;22;20007;-77
2022/11/23 08:35:49;;;;;;;8.23;2.60;;;;;;;6.56;100.00;99283.59;6529259;22;20086;-75
2022/11/23 08:38:19;;;;;;;8.50;2.40;;;;;;;6.70;100.00;99286.47;6529651;22;20010;-77
2022/11/23 08:40:49;;;;;;;8.65;2.22;;;;;;;6.73;100.00;99276.81;6531169;22;20342;-79
2022/11/23 08:43:20;;;;;;;6.30;2.42;;;;;;;6.80;100.00;99272.22;6529065;22;20334;-79
2022/11/23 08:45:59;;;;;;;10.25;2.90;;;;;;;6.75;100.00;99282.78;6529683;22;20373;-78
2022/11/23 08:48:30;;;;;;;8.52;2.22;;;;;;;6.72;100.00;99274.25;6528518;22;20038;-78
2022/11/23 08:51:00;;;;;;;9.70;2.55;;;;;;;6.69;100.00;99282.19;6490842;22;20030;-78
2022/11/23 08:53:32;;;;;;;9.63;2.50;;;;;;;6.69;100.00;99280.44;6529581;22;19999;-78
2022/11/23 08:56:04;;;;;;;10.13;2.67;;;;;;;6.74;100.00;99281.09;6529432;22;20029;-78
2022/11/23 08:58:35;;;;;;;5.63;2.00;;;;;;;6.89;100.00;99284.78;6530972;22;20078;-79
2022/11/23 09:01:10;;;;;;;5.15;2.28;;;;;;;6.95;100.00;99282.78;6529641;22;20053;-79
2022/11/23 09:03:41;;;;;;;9.95;2.30;;;;;;;7.11;100.00;99283.84;6530047;22;20037;-77
2022/11/23 09:06:12;;;;;;;8.27;2.25;;;;;;;7.24;100.00;99284.19;6529015;22;19999;-78
2022/11/23 09:08:42;;;;;;;10.73;1.92;;;;;;;7.45;100.00;99292.75;6529916;22;20418;-79
2022/11/23 09:11:13;;;;;;;6.15;2.03;;;;;;;7.63;100.00;99291.06;6530068;22;20158;-78
2022/11/23 09:13:43;;;;;;;6.75;1.85;;;;;;;7.69;100.00;99285.63;6491347;22;20428;-78
2022/11/23 09:16:13;;;;;;;5.53;1.77;;;;;;;8.02;100.00;99295.31;6530436;22;20072;-79
2022/11/23 09:18:44;;;;;;;6.82;1.90;;;;;;;8.34;100.00;99289.50;6516978;22;20230;-79
2022/11/23 09:21:14;;;;;;;8.55;1.95;;;;;;;8.43;100.00;99286.50;6529622;22;19999;-79
2022/11/23 09:23:44;;;;;;;6.55;1.90;;;;;;;8.49;100.00;99299.22;6529356;22;20342;-79
2022/11/23 09:26:15;;;;;;;7.95;1.88;;;;;;;8.51;100.00;99299.13;6516356;22;20422;-78
2022/11/23 09:28:45;;;;;;;7.47;2.08;;;;;;;8.59;100.00;99294.41;6529852;22;20010;-79
2022/11/23 09:31:15;;;;;;;8.40;2.15;;;;;;;8.58;100.00;99301.34;6517028;22;20003;-78
2022/11/23 09:33:45;;;;;;;8.07;1.92;;;;;;;8.65;100.00;99297.56;6528709;22;20057;-78
2022/11/23 09:36:16;;;;;;;6.63;1.95;;;;;;;8.50;100.00;99300.88;6518654;22;20003;-79
2022/11/23 09:38:46;;;;;;;11.07;2.30;;;;;;;8.46;100.00;99296.75;6529957;22;19995;-78
2022/11/23 09:41:32;;;;;;;8.40;2.22;;;;;;;8.07;100.00;99306.34;6529884;22;20030;-79
2022/11/23 09:44:32;;;;;;;8.55;2.05;;;;;;;8.00;100.00;99307.56;6518784;22;20015;-78
2022/11/23 09:47:26;;;;;;;6.65;1.60;;;;;;;7.91;100.00;99304.53;6517508;22;20446;-76
2022/11/23 09:50:05;;;;;;;13.20;2.22;;;;;;;7.74;100.00;99310.47;6527587;22;19999;-77
2022/11/23 09:52:39;;;;;;;5.38;1.90;;;;;;;7.82;100.00;99305.78;6528138;22;20464;-76
2022/11/23 09:55:16;;;;;;;11.25;2.10;;;;;;;7.91;100.00;99305.38;6527819;22;20007;-77
2022/11/23 09:57:50;;;;;;;7.28;1.98;;;;;;;7.89;100.00;99304.59;6527853;22;20018;-77
2022/11/23 10:00:22;;;;;;;7.05;2.10;;;;;;;8.07;100.00;99301.16;6528216;22;20074;-78
2022/11/23 10:02:52;;;;;;;8.40;1.98;;;;;;;8.19;100.00;99305.00;6527745;22;20209;-76
2022/11/23 10:05:26;;;;;;;8.57;2.10;;;;;;;8.29;100.00;99306.25;6527077;22;20019;-77
2022/11/23 10:08:27;;;;;;;10.65;1.90;;;;;;;8.42;100.00;99303.00;6527160;22;20319;-75
2022/11/23 10:11:21;;;;;;;8.32;1.60;;;;;;;8.56;100.00;99311.00;6527832;22;20015;-76
2022/11/23 10:14:16;;;;;;;6.60;1.73;;;;;;;8.73;100.00;99303.22;6489012;22;20053;-76
2022/11/23 10:17:21;;;;;;;7.95;1.65;;;;;;;8.81;100.00;99308.94;6527653;22;20351;-76
2022/11/23 10:20:19;;;;;;;7.85;1.85;;;;;;;8.86;100.00;99303.50;6489432;22;20007;-77
2022/11/23 10:22:59;;;;;;;5.22;1.35;;;;;;;8.87;100.00;99306.00;6527971;22;20031;-76
2022/11/23 10:25:41;;;;;;;6.00;1.52;;;;;;;8.78;100.00;99301.25;6526581;22;20002;-76
2022/11/23 10:28:16;;;;;;;5.55;1.80;;;;;;;8.86;100.00;99309.53;6529300;22;20430;-79
2022/11/23 10:30:54;;;;;;;6.68;1.70;;;;;;;8.97;100.00;99309.00;6529163;22;20044;-79
2022/11/23 10:33:36;;;;;;;7.25;1.98;;;;;;;8.96;100.00;99315.13;6528590;22;20007;-78
2022/11/23 10:36:09;;;;;;;6.47;1.67;;;;;;;9.03;100.00;99311.31;6490659;22;20319;-79
2022/11/23 10:38:40;;;;;;;9.77;1.90;;;;;;;9.06;100.00;99305.97;6528934;22;19995;-79
2022/11/23 10:41:13;;;;;;;5.72;1.60;;;;;;;9.11;100.00;99306.56;6490837;22;20003;-78
2022/11/23 10:43:54;;;;;;;7.05;1.73;;;;;;;9.08;100.00;99301.50;6500787;22;20011;-79
2022/11/23 10:46:38;;;;;;;6.78;1.85;;;;;;;8.95;100.00;99314.31;6528787;22;19999;-79
2022/11/23 10:49:16;;;;;;;7.68;1.30;;;;;;;9.16;100.00;99314.06;6529379;22;20253;-78
2022/11/23 10:51:51;;;;;;;5.22;1.05;;;;;;;9.22;100.00;99310.31;6529375;22;19995;-77
2022/11/23 10:54:24;;;;;;;6.20;1.20;;;;;;;9.30;100.00;99310.78;6529961;22;20021;-79
2022/11/23 10:56:55;;;;;;;7.43;1.33;;;;;;;9.30;100.00;99309.00;6530468;22;19999;-79
2022/11/23 10:59:34;;;;;;;8.52;1.55;;;;;;;9.37;100.00;99301.72;6530445;22;20011;-79
2022/11/23 11:02:21;;;;;;;4.32;1.10;;;;;;;9.34;100.00;99314.91;6531159;22;20014;-79
2022/11/23 11:05:21;;;;;;;5.18;1.15;;;;;;;9.44;100.00;99309.16;6492362;22;20057;-79
2022/11/23 11:07:52;;;;;;;5.93;1.30;;;;;;;9.39;100.00;99310.31;6492492;22;20457;-79
2022/11/23 11:10:34;;;;;;;6.57;1.40;;;;;;;9.48;100.00;99309.84;6491846;22;20014;-80
2022/11/23 11:13:29;;;;;;;5.75;1.20;;;;;;;9.45;100.00;99304.81;6530692;22;20007;-79
2022/11/23 11:16:02;;;;;;;6.68;1.30;;;;;;;9.38;100.00;99306.88;6492761;22;20345;-79
2022/11/23 11:18:35;;;;;;;4.53;0.90;;;;;;;9.34;100.00;99307.94;6531704;22;20010;-79
2022/11/23 11:21:33;;;;;;;5.97;1.30;;;;;;;9.41;100.00;99308.47;6529837;22;20479;-76
2022/11/23 11:24:18;;;;;;;5.93;1.20;;;;;;;9.42;100.00;99307.53;6504456;22;20010;-75
2022/11/23 11:26:52;;;;;;;5.85;1.15;;;;;;;9.52;100.00;99311.38;6491023;22;20003;-76
2022/11/23 11:29:30;;;;;;;6.55;1.20;;;;;;;9.42;100.00;99305.78;6528964;22;20009;-75
2022/11/23 11:32:17;;;;;;;5.50;1.23;;;;;;;9.34;100.00;99304.50;6529135;22;19995;-76
2022/11/23 11:35:07;;;;;;;7.25;1.13;;;;;;;9.34;100.00;99297.50;6528831;22;20242;-76
2022/11/23 11:37:43;;;;;;;6.22;1.30;;;;;;;9.40;100.00;99297.19;6489387;22;20456;-76
2022/11/23 11:40:22;;;;;;;;;;;;;;;9.38;100.00;99296.44;6529512;22;20330;-75
2022/11/23 11:43:21;;;;;;;7.53;1.20;;;;;;;9.33;100.00;99292.38;6491200;22;19914;-75
2022/11/23 11:46:03;;;;;;;5.40;1.17;;;;;;;9.42;100.00;99297.09;6504569;22;20064;-76
2022/11/23 11:48:59;;;;;;;5.15;1.20;;;;;;;9.42;100.00;99284.94;6490797;22;20461;-77
2022/11/23 11:51:50;;;;;;;4.70;1.30;;;;;;;9.41;100.00;99292.81;6528265;22;19995;-77
2022/11/23 11:54:26;;;;;;;5.53;1.20;;;;;;;9.39;100.00;99295.53;6529089;22;20004;-76
2022/11/23 11:57:04;;;;;;;3.72;0.98;;;;;;;9.63;100.00;99296.03;6490931;22;20093;-76